Terminal Aerodrome Forecast
Issued by NWS Tulsa, OK

Home | Current Version | Previous Version | Text Only | Print | Product List | Glossary On
Versions: 1 2 3 4 5 6 7 8 9 10 11 12 13
000
FTUS44 KTSA 201100
TAFTUL
TAF
KTUL 201120Z 2012/2112 12007KT P6SM BKN150
     FM201500 17012KT P6SM SCT040 BKN100
     FM210000 17009KT P6SM BKN040 PROB30 2100/2106 5SM -TSRA
      BKN030CB
     FM210600 17008KT 5SM -TSRA BR OVC025CB=

USA.gov is the U.S. government's official web portal to all federal, state and local government web resources and services.